sensor_id;sensor_type;location;lat;lon;timestamp;pressure;altitude;pressure_sealevel;temperature;humidity
48964;BME280;34776;48.180;16.420;2023-03-31T00:00:24;99437.44;;;11.30;68.97
48964;BME280;34776;48.180;16.420;2023-03-31T00:02:50;99438.28;;;11.31;69.02
48964;BME280;34776;48.180;16.420;2023-03-31T00:05:18;99443.59;;;11.31;68.92
48964;BME280;34776;48.180;16.420;2023-03-31T00:07:46;99440.25;;;11.27;69.18
48964;BME280;34776;48.180;16.420;2023-03-31T00:10:13;99452.91;;;11.24;68.94
48964;BME280;34776;48.180;16.420;2023-03-31T00:12:38;99464.50;;;11.23;69.04
48964;BME280;34776;48.180;16.420;2023-03-31T00:15:04;99453.00;;;11.22;69.07
48964;BME280;34776;48.180;16.420;2023-03-31T00:17:29;99442.44;;;11.21;69.25
48964;BME280;34776;48.180;16.420;2023-03-31T00:19:57;99454.13;;;11.18;69.29
48964;BME280;34776;48.180;16.420;2023-03-31T00:22:25;99452.41;;;11.17;69.18
48964;BME280;34776;48.180;16.420;2023-03-31T00:24:52;99444.53;;;11.15;69.38
48964;BME280;34776;48.180;16.420;2023-03-31T00:27:17;99437.69;;;11.11;69.27
48964;BME280;34776;48.180;16.420;2023-03-31T00:29:42;99441.28;;;11.10;69.37
48964;BME280;34776;48.180;16.420;2023-03-31T00:32:09;99433.50;;;11.07;69.45
48964;BME280;34776;48.180;16.420;2023-03-31T00:34:35;99438.91;;;11.06;69.24
48964;BME280;34776;48.180;16.420;2023-03-31T00:37:01;99432.91;;;11.02;69.29
48964;BME280;34776;48.180;16.420;2023-03-31T00:39:28;99426.72;;;11.02;69.34
48964;BME280;34776;48.180;16.420;2023-03-31T00:41:57;99427.78;;;10.99;69.25
48964;BME280;34776;48.180;16.420;2023-03-31T00:44:23;99419.19;;;10.94;69.24
48964;BME280;34776;48.180;16.420;2023-03-31T00:47:03;99426.53;;;10.90;69.63
48964;BME280;34776;48.180;16.420;2023-03-31T00:49:35;99415.97;;;10.89;69.56
48964;BME280;34776;48.180;16.420;2023-03-31T00:54:37;99410.66;;;10.89;69.52
48964;BME280;34776;48.180;16.420;2023-03-31T00:57:06;99403.81;;;10.85;69.52
48964;BME280;34776;48.180;16.420;2023-03-31T00:59:36;99407.59;;;10.81;69.51
48964;BME280;34776;48.180;16.420;2023-03-31T01:02:02;99408.56;;;10.80;69.78
48964;BME280;34776;48.180;16.420;2023-03-31T01:04:41;99398.94;;;10.77;69.87
48964;BME280;34776;48.180;16.420;2023-03-31T01:07:17;99404.53;;;10.72;69.73
48964;BME280;34776;48.180;16.420;2023-03-31T01:09:47;99407.28;;;10.71;69.93
48964;BME280;34776;48.180;16.420;2023-03-31T01:12:15;99401.88;;;10.72;69.97
48964;BME280;34776;48.180;16.420;2023-03-31T01:14:41;99388.59;;;10.72;69.99
48964;BME280;34776;48.180;16.420;2023-03-31T01:17:06;99398.28;;;10.73;70.05
48964;BME280;34776;48.180;16.420;2023-03-31T01:19:41;99381.38;;;10.74;70.21
48964;BME280;34776;48.180;16.420;2023-03-31T01:22:22;99387.19;;;10.81;70.39
48964;BME280;34776;48.180;16.420;2023-03-31T01:42:51;99377.28;;;11.13;69.10
48964;BME280;34776;48.180;16.420;2023-03-31T01:48:17;99385.63;;;11.07;69.40
48964;BME280;34776;48.180;16.420;2023-03-31T01:50:58;99378.72;;;11.05;69.51
48964;BME280;34776;48.180;16.420;2023-03-31T01:53:49;99367.19;;;11.04;69.66
48964;BME280;34776;48.180;16.420;2023-03-31T01:56:34;99368.72;;;11.08;69.52
48964;BME280;34776;48.180;16.420;2023-03-31T02:04:22;99358.09;;;11.08;69.60
48964;BME280;34776;48.180;16.420;2023-03-31T02:06:54;99358.09;;;11.08;69.39
48964;BME280;34776;48.180;16.420;2023-03-31T02:09:25;99354.66;;;11.06;69.59
48964;BME280;34776;48.180;16.420;2023-03-31T02:11:54;99351.91;;;11.08;69.39
48964;BME280;34776;48.180;16.420;2023-03-31T02:14:23;99349.25;;;11.08;69.49
48964;BME280;34776;48.180;16.420;2023-03-31T02:16:54;99350.22;;;11.07;69.38
48964;BME280;34776;48.180;16.420;2023-03-31T02:19:25;99343.94;;;11.08;69.50
48964;BME280;34776;48.180;16.420;2023-03-31T02:21:52;99349.34;;;11.06;69.48
48964;BME280;34776;48.180;16.420;2023-03-31T02:24:20;99344.78;;;11.08;69.54
48964;BME280;34776;48.180;16.420;2023-03-31T02:27:10;99341.97;;;11.11;69.36
48964;BME280;34776;48.180;16.420;2023-03-31T02:29:37;99331.31;;;11.11;69.23
48964;BME280;34776;48.180;16.420;2023-03-31T02:34:33;99330.94;;;11.03;69.07
48964;BME280;34776;48.180;16.420;2023-03-31T02:36:59;99332.06;;;10.99;69.23
48964;BME280;34776;48.180;16.420;2023-03-31T02:39:29;99327.31;;;10.90;69.37
48964;BME280;34776;48.180;16.420;2023-03-31T02:41:57;99326.72;;;10.85;69.24
48964;BME280;34776;48.180;16.420;2023-03-31T02:44:23;99324.44;;;10.79;69.56
48964;BME280;34776;48.180;16.420;2023-03-31T02:46:48;99321.22;;;10.73;69.56
48964;BME280;34776;48.180;16.420;2023-03-31T02:49:15;99317.13;;;10.68;69.69
48964;BME280;34776;48.180;16.420;2023-03-31T02:54:39;99312.53;;;10.55;69.77
48964;BME280;34776;48.180;16.420;2023-03-31T03:14:18;99305.47;;;10.24;70.14
48964;BME280;34776;48.180;16.420;2023-03-31T03:16:53;99313.00;;;10.16;70.20
48964;BME280;34776;48.180;16.420;2023-03-31T03:19:22;99307.97;;;10.11;70.48
48964;BME280;34776;48.180;16.420;2023-03-31T03:21:48;99307.47;;;10.05;70.44
48964;BME280;34776;48.180;16.420;2023-03-31T03:24:14;99310.31;;;10.02;70.86
48964;BME280;34776;48.180;16.420;2023-03-31T03:26:41;99303.47;;;9.98;70.87
48964;BME280;34776;48.180;16.420;2023-03-31T03:29:07;99299.28;;;9.93;70.88
48964;BME280;34776;48.180;16.420;2023-03-31T03:31:32;99296.03;;;9.88;70.88
48964;BME280;34776;48.180;16.420;2023-03-31T03:33:58;99296.28;;;9.84;70.95
48964;BME280;34776;48.180;16.420;2023-03-31T03:36:25;99284.22;;;9.78;71.13
48964;BME280;34776;48.180;16.420;2023-03-31T03:38:50;99286.09;;;9.76;71.17
48964;BME280;34776;48.180;16.420;2023-03-31T03:41:15;99285.44;;;9.72;71.02
48964;BME280;34776;48.180;16.420;2023-03-31T03:43:41;99289.00;;;9.71;71.35
48964;BME280;34776;48.180;16.420;2023-03-31T03:46:06;99278.59;;;9.68;71.33
48964;BME280;34776;48.180;16.420;2023-03-31T03:48:31;99277.91;;;9.65;71.36
48964;BME280;34776;48.180;16.420;2023-03-31T03:51:00;99276.38;;;9.61;71.45
48964;BME280;34776;48.180;16.420;2023-03-31T03:53:26;99283.53;;;9.59;71.78
48964;BME280;34776;48.180;16.420;2023-03-31T03:55:51;99278.44;;;9.55;71.72
48964;BME280;34776;48.180;16.420;2023-03-31T03:58:17;99281.09;;;9.55;71.58
48964;BME280;34776;48.180;16.420;2023-03-31T04:00:44;99281.16;;;9.54;71.83
48964;BME280;34776;48.180;16.420;2023-03-31T04:03:10;99277.53;;;9.55;72.03
48964;BME280;34776;48.180;16.420;2023-03-31T04:05:35;99273.13;;;9.55;72.12
48964;BME280;34776;48.180;16.420;2023-03-31T04:08:00;99266.09;;;9.54;72.04
48964;BME280;34776;48.180;16.420;2023-03-31T04:10:27;99264.41;;;9.53;72.07
48964;BME280;34776;48.180;16.420;2023-03-31T04:12:52;99268.75;;;9.54;72.03
48964;BME280;34776;48.180;16.420;2023-03-31T04:15:17;99266.94;;;9.55;72.01
48964;BME280;34776;48.180;16.420;2023-03-31T04:17:43;99264.22;;;9.57;72.02
48964;BME280;34776;48.180;16.420;2023-03-31T04:20:15;99257.03;;;9.59;71.95
48964;BME280;34776;48.180;16.420;2023-03-31T04:22:40;99257.09;;;9.57;71.80
48964;BME280;34776;48.180;16.420;2023-03-31T04:25:10;99257.22;;;9.55;71.71
48964;BME280;34776;48.180;16.420;2023-03-31T04:27:45;99248.47;;;9.53;71.73
48964;BME280;34776;48.180;16.420;2023-03-31T04:30:15;99254.72;;;9.52;71.47
48964;BME280;34776;48.180;16.420;2023-03-31T04:32:51;99241.63;;;9.49;71.50
48964;BME280;34776;48.180;16.420;2023-03-31T04:35:18;99244.38;;;9.48;71.74
48964;BME280;34776;48.180;16.420;2023-03-31T04:37:45;99252.59;;;9.43;72.02
48964;BME280;34776;48.180;16.420;2023-03-31T04:40:11;99238.56;;;9.41;71.89
48964;BME280;34776;48.180;16.420;2023-03-31T04:42:36;99235.13;;;9.39;71.82
48964;BME280;34776;48.180;16.420;2023-03-31T04:45:02;99227.34;;;9.36;71.73
48964;BME280;34776;48.180;16.420;2023-03-31T04:47:27;99226.56;;;9.34;71.83
48964;BME280;34776;48.180;16.420;2023-03-31T04:49:53;99217.00;;;9.31;71.76
48964;BME280;34776;48.180;16.420;2023-03-31T04:52:18;99214.59;;;9.27;71.74
48964;BME280;34776;48.180;16.420;2023-03-31T04:54:43;99212.97;;;9.24;72.00
48964;BME280;34776;48.180;16.420;2023-03-31T04:57:09;99211.34;;;9.22;71.91
48964;BME280;34776;48.180;16.420;2023-03-31T04:59:34;99216.81;;;9.19;72.01
48964;BME280;34776;48.180;16.420;2023-03-31T05:01:59;99213.41;;;9.17;72.20
48964;BME280;34776;48.180;16.420;2023-03-31T05:04:25;99212.63;;;9.14;72.28
48964;BME280;34776;48.180;16.420;2023-03-31T05:06:50;99223.31;;;9.13;72.25
48964;BME280;34776;48.180;16.420;2023-03-31T05:09:16;99218.88;;;9.13;72.35
48964;BME280;34776;48.180;16.420;2023-03-31T05:11:41;99225.88;;;9.14;72.42
48964;BME280;34776;48.180;16.420;2023-03-31T05:14:06;99215.13;;;9.18;72.59
48964;BME280;34776;48.180;16.420;2023-03-31T05:16:32;99206.91;;;9.22;72.64
48964;BME280;34776;48.180;16.420;2023-03-31T05:18:58;99214.59;;;9.27;72.46
48964;BME280;34776;48.180;16.420;2023-03-31T05:21:23;99208.78;;;9.36;72.24
48964;BME280;34776;48.180;16.420;2023-03-31T05:23:51;99216.31;;;9.44;72.30
48964;BME280;34776;48.180;16.420;2023-03-31T05:26:17;99205.09;;;9.54;72.37
48964;BME280;34776;48.180;16.420;2023-03-31T05:28:43;99204.56;;;9.64;72.35
48964;BME280;34776;48.180;16.420;2023-03-31T05:31:09;99201.19;;;9.76;72.13
48964;BME280;34776;48.180;16.420;2023-03-31T05:33:35;99204.50;;;9.95;72.00
48964;BME280;34776;48.180;16.420;2023-03-31T05:36:07;99213.09;;;10.15;71.51
48964;BME280;34776;48.180;16.420;2023-03-31T05:38:33;99202.94;;;10.38;71.13
48964;BME280;34776;48.180;16.420;2023-03-31T05:40:58;99204.97;;;10.63;70.60
48964;BME280;34776;48.180;16.420;2023-03-31T05:43:24;99201.81;;;10.99;69.95
48964;BME280;34776;48.180;16.420;2023-03-31T05:45:50;99193.59;;;11.31;68.95
48964;BME280;34776;48.180;16.420;2023-03-31T05:48:15;99183.56;;;11.49;68.34
48964;BME280;34776;48.180;16.420;2023-03-31T05:50:40;99174.34;;;11.67;68.02
48964;BME280;34776;48.180;16.420;2023-03-31T05:53:07;99170.38;;;11.87;67.63
48964;BME280;34776;48.180;16.420;2023-03-31T05:55:35;99168.97;;;12.09;67.06
48964;BME280;34776;48.180;16.420;2023-03-31T05:58:00;99162.06;;;12.32;66.42
48964;BME280;34776;48.180;16.420;2023-03-31T06:00:26;99162.59;;;12.50;65.94
48964;BME280;34776;48.180;16.420;2023-03-31T06:02:51;99162.50;;;12.64;65.93
48964;BME280;34776;48.180;16.420;2023-03-31T06:05:16;99149.59;;;12.71;65.54
48964;BME280;34776;48.180;16.420;2023-03-31T06:07:41;99144.44;;;12.80;65.19
48964;BME280;34776;48.180;16.420;2023-03-31T06:10:07;99133.63;;;12.95;64.65
48964;BME280;34776;48.180;16.420;2023-03-31T06:12:34;99133.00;;;13.04;64.35
48964;BME280;34776;48.180;16.420;2023-03-31T06:15:00;99133.50;;;13.09;64.06
48964;BME280;34776;48.180;16.420;2023-03-31T06:17:25;99130.25;;;13.30;64.04
48964;BME280;34776;48.180;16.420;2023-03-31T06:19:50;99127.59;;;13.54;63.02
48964;BME280;34776;48.180;16.420;2023-03-31T06:22:16;99126.84;;;13.76;62.39
48964;BME280;34776;48.180;16.420;2023-03-31T06:24:41;99123.25;;;13.99;61.90
48964;BME280;34776;48.180;16.420;2023-03-31T06:27:06;99127.47;;;14.26;60.95
48964;BME280;34776;48.180;16.420;2023-03-31T06:29:32;99121.03;;;14.51;60.52
48964;BME280;34776;48.180;16.420;2023-03-31T06:31:57;99119.00;;;14.77;59.17
48964;BME280;34776;48.180;16.420;2023-03-31T06:34:22;99112.66;;;14.90;58.82
48964;BME280;34776;48.180;16.420;2023-03-31T06:36:48;99114.59;;;14.99;58.55
48964;BME280;34776;48.180;16.420;2023-03-31T06:39:13;99111.66;;;15.13;57.96
48964;BME280;34776;48.180;16.420;2023-03-31T06:41:38;99105.00;;;15.40;57.75
48964;BME280;34776;48.180;16.420;2023-03-31T06:44:04;99104.66;;;15.66;57.12
48964;BME280;34776;48.180;16.420;2023-03-31T06:46:29;99101.84;;;15.99;56.30
48964;BME280;34776;48.180;16.420;2023-03-31T06:48:55;99107.13;;;16.32;55.21
48964;BME280;34776;48.180;16.420;2023-03-31T06:51:20;99102.94;;;16.70;54.52
48964;BME280;34776;48.180;16.420;2023-03-31T06:53:46;99101.91;;;16.92;53.60
48964;BME280;34776;48.180;16.420;2023-03-31T06:56:11;99096.28;;;16.95;53.24
48964;BME280;34776;48.180;16.420;2023-03-31T06:58:36;99085.13;;;17.09;52.72
48964;BME280;34776;48.180;16.420;2023-03-31T07:01:03;99076.13;;;17.30;52.51
48964;BME280;34776;48.180;16.420;2023-03-31T07:03:30;99072.75;;;17.47;52.49
48964;BME280;34776;48.180;16.420;2023-03-31T07:05:55;99077.00;;;17.79;51.72
48964;BME280;34776;48.180;16.420;2023-03-31T07:08:21;99068.13;;;18.35;50.54
48964;BME280;34776;48.180;16.420;2023-03-31T07:10:48;99063.88;;;18.33;50.12
48964;BME280;34776;48.180;16.420;2023-03-31T07:13:15;99066.47;;;18.15;49.51
48964;BME280;34776;48.180;16.420;2023-03-31T07:15:41;99053.94;;;18.80;50.19
48964;BME280;34776;48.180;16.420;2023-03-31T07:18:07;99052.25;;;19.79;47.72
48964;BME280;34776;48.180;16.420;2023-03-31T07:20:33;99045.50;;;19.65;47.46
48964;BME280;34776;48.180;16.420;2023-03-31T07:22:59;99047.31;;;19.38;47.23
48964;BME280;34776;48.180;16.420;2023-03-31T07:25:24;99043.53;;;19.13;47.54
48964;BME280;34776;48.180;16.420;2023-03-31T07:27:50;99042.72;;;18.85;48.13
48964;BME280;34776;48.180;16.420;2023-03-31T07:30:17;99044.09;;;18.61;48.42
48964;BME280;34776;48.180;16.420;2023-03-31T07:32:48;99040.22;;;18.36;48.76
48964;BME280;34776;48.180;16.420;2023-03-31T07:35:14;99038.44;;;18.27;48.99
48964;BME280;34776;48.180;16.420;2023-03-31T07:37:42;99039.88;;;18.12;49.03
48964;BME280;34776;48.180;16.420;2023-03-31T07:40:11;99027.72;;;18.08;49.25
48964;BME280;34776;48.180;16.420;2023-03-31T07:42:37;99016.09;;;18.17;49.10
48964;BME280;34776;48.180;16.420;2023-03-31T07:45:02;99012.34;;;18.37;48.85
48964;BME280;34776;48.180;16.420;2023-03-31T07:47:30;99005.38;;;18.44;48.38
48964;BME280;34776;48.180;16.420;2023-03-31T07:49:56;98999.38;;;18.23;48.28
48964;BME280;34776;48.180;16.420;2023-03-31T07:52:21;99003.84;;;17.95;48.82
48964;BME280;34776;48.180;16.420;2023-03-31T07:54:47;99011.09;;;17.75;48.79
48964;BME280;34776;48.180;16.420;2023-03-31T07:57:13;98999.78;;;17.61;49.01
48964;BME280;34776;48.180;16.420;2023-03-31T07:59:40;99000.91;;;17.69;48.93
48964;BME280;34776;48.180;16.420;2023-03-31T08:02:06;98991.09;;;18.07;48.71
48964;BME280;34776;48.180;16.420;2023-03-31T08:04:31;98980.81;;;19.03;47.09
48964;BME280;34776;48.180;16.420;2023-03-31T08:06:56;98982.84;;;20.92;44.97
48964;BME280;34776;48.180;16.420;2023-03-31T08:09:22;98970.25;;;24.08;40.19
48964;BME280;34776;48.180;16.420;2023-03-31T08:11:48;98974.66;;;24.24;38.94
48964;BME280;34776;48.180;16.420;2023-03-31T08:14:13;98971.31;;;23.00;39.55
48964;BME280;34776;48.180;16.420;2023-03-31T08:16:39;98971.97;;;21.51;40.97
48964;BME280;34776;48.180;16.420;2023-03-31T08:19:04;98968.34;;;20.51;42.49
48964;BME280;34776;48.180;16.420;2023-03-31T08:21:30;98965.91;;;19.97;43.42
48964;BME280;34776;48.180;16.420;2023-03-31T08:23:56;98957.88;;;19.61;44.12
48964;BME280;34776;48.180;16.420;2023-03-31T08:26:22;98946.16;;;19.44;44.65
48964;BME280;34776;48.180;16.420;2023-03-31T08:28:51;98940.00;;;19.34;44.62
48964;BME280;34776;48.180;16.420;2023-03-31T08:31:18;98943.56;;;19.16;44.51
48964;BME280;34776;48.180;16.420;2023-03-31T08:33:45;98939.94;;;18.90;44.98
48964;BME280;34776;48.180;16.420;2023-03-31T08:36:11;98932.22;;;18.77;45.54
48964;BME280;34776;48.180;16.420;2023-03-31T08:38:39;98932.84;;;18.53;45.61
48964;BME280;34776;48.180;16.420;2023-03-31T08:43:47;98922.38;;;17.94;46.63
48964;BME280;34776;48.180;16.420;2023-03-31T08:46:16;98915.75;;;17.79;47.14
48964;BME280;34776;48.180;16.420;2023-03-31T08:48:48;98902.22;;;17.71;47.22
48964;BME280;34776;48.180;16.420;2023-03-31T08:51:21;98902.22;;;17.61;47.82
48964;BME280;34776;48.180;16.420;2023-03-31T08:53:58;98903.56;;;17.47;47.73
48964;BME280;34776;48.180;16.420;2023-03-31T08:56:27;98900.16;;;17.45;48.02
48964;BME280;34776;48.180;16.420;2023-03-31T08:58:54;98896.59;;;17.54;48.38
48964;BME280;34776;48.180;16.420;2023-03-31T09:01:41;98884.13;;;17.53;48.11
48964;BME280;34776;48.180;16.420;2023-03-31T09:07:15;98877.31;;;17.69;48.84
48964;BME280;34776;48.180;16.420;2023-03-31T09:09:50;98868.09;;;17.81;48.50
48964;BME280;34776;48.180;16.420;2023-03-31T09:12:23;98861.47;;;17.85;48.63
48964;BME280;34776;48.180;16.420;2023-03-31T09:14:59;98861.84;;;17.90;48.78
48964;BME280;34776;48.180;16.420;2023-03-31T09:17:32;98854.34;;;17.94;49.08
48964;BME280;34776;48.180;16.420;2023-03-31T09:20:21;98856.47;;;17.90;48.85
48964;BME280;34776;48.180;16.420;2023-03-31T09:22:55;98847.31;;;17.83;48.68
48964;BME280;34776;48.180;16.420;2023-03-31T09:25:26;98844.19;;;17.78;49.02
48964;BME280;34776;48.180;16.420;2023-03-31T09:27:56;98841.94;;;17.73;49.19
48964;BME280;34776;48.180;16.420;2023-03-31T09:30:27;98840.69;;;17.68;49.01
48964;BME280;34776;48.180;16.420;2023-03-31T09:33:24;98841.16;;;17.53;48.35
48964;BME280;34776;48.180;16.420;2023-03-31T09:35:59;98836.41;;;17.47;48.46
48964;BME280;34776;48.180;16.420;2023-03-31T09:38:25;98831.63;;;17.41;48.59
48964;BME280;34776;48.180;16.420;2023-03-31T09:40:56;98833.31;;;17.42;48.57
48964;BME280;34776;48.180;16.420;2023-03-31T09:43:25;98832.59;;;17.40;48.26
48964;BME280;34776;48.180;16.420;2023-03-31T09:45:51;98818.59;;;17.46;48.18
48964;BME280;34776;48.180;16.420;2023-03-31T09:48:26;98812.16;;;17.67;47.63
48964;BME280;34776;48.180;16.420;2023-03-31T09:50:56;98803.38;;;18.02;47.36
48964;BME280;34776;48.180;16.420;2023-03-31T09:55:54;98806.56;;;18.33;46.61
48964;BME280;34776;48.180;16.420;2023-03-31T09:58:22;98798.69;;;18.22;46.47
48964;BME280;34776;48.180;16.420;2023-03-31T10:03:26;98784.00;;;18.16;46.33
48964;BME280;34776;48.180;16.420;2023-03-31T10:05:55;98790.75;;;18.20;46.33
48964;BME280;34776;48.180;16.420;2023-03-31T10:08:40;98787.94;;;18.22;45.64
48964;BME280;34776;48.180;16.420;2023-03-31T10:11:11;98781.47;;;18.15;45.52
48964;BME280;34776;48.180;16.420;2023-03-31T10:16:12;98780.72;;;18.40;45.18
48964;BME280;34776;48.180;16.420;2023-03-31T10:18:40;98781.47;;;18.51;44.92
48964;BME280;34776;48.180;16.420;2023-03-31T10:21:17;98765.53;;;18.31;43.94
48964;BME280;34776;48.180;16.420;2023-03-31T10:23:48;98761.72;;;18.24;45.05
48964;BME280;34776;48.180;16.420;2023-03-31T10:26:35;98754.28;;;18.18;44.05
48964;BME280;34776;48.180;16.420;2023-03-31T10:29:00;98741.53;;;18.20;44.65
48964;BME280;34776;48.180;16.420;2023-03-31T10:31:33;98735.53;;;18.26;43.68
48964;BME280;34776;48.180;16.420;2023-03-31T10:34:08;98734.63;;;18.35;44.29
48964;BME280;34776;48.180;16.420;2023-03-31T10:36:38;98725.75;;;18.43;43.77
48964;BME280;34776;48.180;16.420;2023-03-31T10:39:14;98720.94;;;18.46;43.45
48964;BME280;34776;48.180;16.420;2023-03-31T10:41:39;98720.50;;;18.59;43.54
48964;BME280;34776;48.180;16.420;2023-03-31T10:44:05;98721.09;;;18.89;42.76
48964;BME280;34776;48.180;16.420;2023-03-31T10:46:48;98723.44;;;19.18;41.02
48964;BME280;34776;48.180;16.420;2023-03-31T10:49:26;98724.88;;;19.39;41.20
48964;BME280;34776;48.180;16.420;2023-03-31T10:51:55;98733.69;;;19.49;41.31
48964;BME280;34776;48.180;16.420;2023-03-31T10:54:22;98728.25;;;19.41;41.19
48964;BME280;34776;48.180;16.420;2023-03-31T10:56:50;98752.50;;;19.41;41.23
48964;BME280;34776;48.180;16.420;2023-03-31T11:05:02;98763.09;;;18.82;40.77
48964;BME280;34776;48.180;16.420;2023-03-31T11:13:12;98750.53;;;18.73;42.24
48964;BME280;34776;48.180;16.420;2023-03-31T11:15:48;98738.34;;;18.78;42.05
48964;BME280;34776;48.180;16.420;2023-03-31T11:21:27;98743.69;;;18.96;41.96
48964;BME280;34776;48.180;16.420;2023-03-31T11:29:37;98691.53;;;18.97;42.46
48964;BME280;34776;48.180;16.420;2023-03-31T11:34:57;98683.31;;;20.17;41.91
48964;BME280;34776;48.180;16.420;2023-03-31T11:37:53;98650.25;;;20.56;40.64
48964;BME280;34776;48.180;16.420;2023-03-31T11:43:35;98608.19;;;20.86;41.13
48964;BME280;34776;48.180;16.420;2023-03-31T11:46:12;98614.94;;;21.29;39.80
48964;BME280;34776;48.180;16.420;2023-03-31T11:49:17;98611.81;;;21.72;38.41
48964;BME280;34776;48.180;16.420;2023-03-31T11:51:49;98604.50;;;22.19;38.75
48964;BME280;34776;48.180;16.420;2023-03-31T11:54:24;98588.16;;;22.35;38.09
48964;BME280;34776;48.180;16.420;2023-03-31T11:56:52;98575.88;;;22.47;38.18
48964;BME280;34776;48.180;16.420;2023-03-31T11:59:20;98561.50;;;22.62;37.35
48964;BME280;34776;48.180;16.420;2023-03-31T12:01:54;98550.38;;;22.57;37.15
48964;BME280;34776;48.180;16.420;2023-03-31T12:04:37;98543.19;;;22.64;35.72
48964;BME280;34776;48.180;16.420;2023-03-31T12:10:42;98518.88;;;22.85;35.19
48964;BME280;34776;48.180;16.420;2023-03-31T12:13:32;98510.31;;;22.67;35.72
48964;BME280;34776;48.180;16.420;2023-03-31T12:16:21;98519.84;;;22.63;37.12
48964;BME280;34776;48.180;16.420;2023-03-31T12:21:22;98514.09;;;22.13;37.79
48964;BME280;34776;48.180;16.420;2023-03-31T12:23:49;98512.72;;;21.79;38.25
48964;BME280;34776;48.180;16.420;2023-03-31T12:26:45;98499.78;;;21.52;37.28
48964;BME280;34776;48.180;16.420;2023-03-31T12:29:28;98512.44;;;21.28;37.43
48964;BME280;34776;48.180;16.420;2023-03-31T12:31:58;98520.72;;;20.95;38.44
48964;BME280;34776;48.180;16.420;2023-03-31T12:34:26;98518.03;;;20.47;38.56
48964;BME280;34776;48.180;16.420;2023-03-31T12:40:09;98526.25;;;19.57;38.74
48964;BME280;34776;48.180;16.420;2023-03-31T12:42:48;98487.69;;;19.40;39.67
48964;BME280;34776;48.180;16.420;2023-03-31T12:45:26;98471.50;;;19.57;40.15
48964;BME280;34776;48.180;16.420;2023-03-31T12:51:00;98483.09;;;20.06;38.99
48964;BME280;34776;48.180;16.420;2023-03-31T12:53:42;98478.88;;;20.60;38.41
48964;BME280;34776;48.180;16.420;2023-03-31T12:56:13;98477.47;;;20.72;38.40
48964;BME280;34776;48.180;16.420;2023-03-31T12:58:43;98477.72;;;20.94;38.42
48964;BME280;34776;48.180;16.420;2023-03-31T13:01:18;98476.84;;;21.47;37.00
48964;BME280;34776;48.180;16.420;2023-03-31T13:03:46;98468.03;;;21.68;37.30
48964;BME280;34776;48.180;16.420;2023-03-31T13:08:56;98466.03;;;22.00;36.83
48964;BME280;34776;48.180;16.420;2023-03-31T13:16:36;98456.09;;;22.01;35.97
48964;BME280;34776;48.180;16.420;2023-03-31T13:19:01;98464.22;;;22.16;35.60
48964;BME280;34776;48.180;16.420;2023-03-31T13:21:27;98444.06;;;22.33;35.51
48964;BME280;34776;48.180;16.420;2023-03-31T13:23:52;98450.03;;;22.43;35.50
48964;BME280;34776;48.180;16.420;2023-03-31T13:34:28;98411.25;;;22.73;34.57
48964;BME280;34776;48.180;16.420;2023-03-31T13:42:37;98397.78;;;22.79;33.68
48964;BME280;34776;48.180;16.420;2023-03-31T13:48:12;98395.97;;;22.50;33.29
48964;BME280;34776;48.180;16.420;2023-03-31T14:02:26;98379.31;;;21.87;33.91
48964;BME280;34776;48.180;16.420;2023-03-31T14:08:01;98371.50;;;21.39;31.68
48964;BME280;34776;48.180;16.420;2023-03-31T14:10:35;98369.38;;;21.12;31.66
48964;BME280;34776;48.180;16.420;2023-03-31T14:13:09;98370.59;;;20.86;31.34
48964;BME280;34776;48.180;16.420;2023-03-31T14:18:15;98382.50;;;20.37;32.42
48964;BME280;34776;48.180;16.420;2023-03-31T14:20:48;98390.72;;;20.13;32.51
48964;BME280;34776;48.180;16.420;2023-03-31T14:23:39;98381.72;;;19.81;32.46
48964;BME280;34776;48.180;16.420;2023-03-31T14:29:06;98366.63;;;19.47;32.11
48964;BME280;34776;48.180;16.420;2023-03-31T14:37:01;98389.88;;;19.07;33.38
48964;BME280;34776;48.180;16.420;2023-03-31T14:39:30;98383.81;;;18.97;34.02
48964;BME280;34776;48.180;16.420;2023-03-31T14:42:01;98362.25;;;18.80;34.14
48964;BME280;34776;48.180;16.420;2023-03-31T14:44:27;98382.06;;;18.63;34.64
48964;BME280;34776;48.180;16.420;2023-03-31T14:46:56;98382.03;;;18.55;34.67
48964;BME280;34776;48.180;16.420;2023-03-31T14:49:28;98373.25;;;18.44;34.81
48964;BME280;34776;48.180;16.420;2023-03-31T14:51:59;98391.38;;;18.34;35.30
48964;BME280;34776;48.180;16.420;2023-03-31T14:54:24;98391.19;;;18.28;35.61
48964;BME280;34776;48.180;16.420;2023-03-31T14:56:53;98388.31;;;18.21;35.63
48964;BME280;34776;48.180;16.420;2023-03-31T14:59:30;98383.56;;;18.07;35.64
48964;BME280;34776;48.180;16.420;2023-03-31T15:01:58;98397.09;;;17.97;36.30
48964;BME280;34776;48.180;16.420;2023-03-31T15:04:28;98406.00;;;17.89;36.41
48964;BME280;34776;48.180;16.420;2023-03-31T15:06:55;98399.25;;;17.85;36.39
48964;BME280;34776;48.180;16.420;2023-03-31T15:09:26;98412.59;;;17.77;36.49
48964;BME280;34776;48.180;16.420;2023-03-31T15:11:58;98416.22;;;17.68;36.54
48964;BME280;34776;48.180;16.420;2023-03-31T15:14:29;98438.72;;;17.67;36.54
48964;BME280;34776;48.180;16.420;2023-03-31T15:16:55;98452.09;;;17.58;36.60
48964;BME280;34776;48.180;16.420;2023-03-31T15:19:26;98442.31;;;17.49;36.92
48964;BME280;34776;48.180;16.420;2023-03-31T15:21:58;98436.41;;;17.45;36.88
48964;BME280;34776;48.180;16.420;2023-03-31T15:24:30;98451.00;;;17.25;36.29
48964;BME280;34776;48.180;16.420;2023-03-31T15:29:45;98506.84;;;17.03;37.19
48964;BME280;34776;48.180;16.420;2023-03-31T15:32:33;98516.78;;;16.66;39.82
48964;BME280;34776;48.180;16.420;2023-03-31T15:34:59;98537.69;;;16.24;40.91
48964;BME280;34776;48.180;16.420;2023-03-31T15:37:32;98540.31;;;15.87;42.81
48964;BME280;34776;48.180;16.420;2023-03-31T15:40:01;98534.41;;;15.54;43.01